Time;durP1;ratioP1;P1;durP2;ratioP2;P2;SDS_P1;SDS_P2;PMS_P1;PMS_P2;Temp;Humidity;BMP_temperature;BMP_pressure;BME280_temperature;BME280_humidity;BME280_pressure;Samples;Min_cycle;Max_cycle;Signal;HPM_P1;HPM_P2
2022/01/10 00:00:48;;;;;;;;;;;0.90;99.90;;;;;;4949173;28;19926;-81
2022/01/10 00:03:15;;;;;;;;;;;0.80;99.90;;;;;;4952173;28;19972;-81
2022/01/10 00:05:42;;;;;;;;;;;0.80;99.90;;;;;;4962947;28;19965;-81
2022/01/10 00:08:11;;;;;;;;;;;0.80;99.90;;;;;;4948892;28;19989;-81
2022/01/10 00:10:38;;;;;;;;;;;0.80;99.90;;;;;;4963639;28;20033;-81
2022/01/10 00:13:04;;;;;;;;;;;0.80;99.90;;;;;;4963986;28;20301;-81
2022/01/10 00:15:31;;;;;;;;;;;0.80;99.90;;;;;;4946284;28;19926;-81
2022/01/10 00:17:58;;;;;;;;;;;0.70;99.90;;;;;;4945757;28;19996;-81
2022/01/10 00:20:29;;;;;;;;;;;0.70;99.90;;;;;;4959779;28;20288;-81
2022/01/10 00:22:56;;;;;;;;;;;0.70;99.90;;;;;;4962394;28;19982;-81
2022/01/10 00:25:23;;;;;;;;;;;0.70;99.90;;;;;;4968798;28;20014;-81
2022/01/10 00:27:52;;;;;;;;;;;0.60;99.90;;;;;;4968640;28;19956;-81
2022/01/10 00:30:21;;;;;;;;;;;0.60;99.90;;;;;;4986854;28;19928;-81
2022/01/10 00:32:49;;;;;;;;;;;0.60;99.90;;;;;;4980280;28;20054;-81
2022/01/10 00:35:16;;;;;;;;;;;0.60;99.90;;;;;;4963587;28;19922;-81
2022/01/10 00:37:43;;;;;;;;;;;0.60;99.90;;;;;;4967435;28;19965;-81
2022/01/10 00:40:12;;;;;;;;;;;0.60;99.90;;;;;;4981366;28;20034;-81
2022/01/10 00:42:39;;;;;;;;;;;0.50;99.90;;;;;;4964471;28;20319;-81
2022/01/10 00:45:17;;;;;;;;;;;0.50;99.90;;;;;;4968731;28;19965;-81
2022/01/10 00:47:47;;;;;;;;;;;0.40;99.90;;;;;;4961683;28;19922;-82
2022/01/10 00:50:15;;;;;;;;;;;0.40;99.90;;;;;;4968339;28;19922;-81
2022/01/10 00:52:42;;;;;;;;;;;0.30;99.90;;;;;;4961178;28;19957;-81
2022/01/10 00:55:09;;;;;;;;;;;0.30;99.90;;;;;;4968761;28;20040;-81
2022/01/10 00:57:36;;;;;;;;;;;0.30;99.90;;;;;;4964889;28;19930;-81
2022/01/10 01:00:04;;;;;;;;;;;0.20;99.90;;;;;;4977022;28;19932;-81
2022/01/10 01:02:32;;;;;;;;;;;0.20;99.90;;;;;;4980004;28;20506;-81
2022/01/10 01:05:00;;;;;;;;;;;0.20;99.90;;;;;;4984242;28;19921;-81
2022/01/10 01:07:27;;;;;;;;;;;0.10;99.90;;;;;;4966880;28;20411;-82
2022/01/10 01:10:12;;;;;;;;;;;0.10;99.90;;;;;;4966516;28;19925;-82
2022/01/10 01:12:57;;;;;;;;;;;0.00;99.90;;;;;;4962500;28;19925;-82
2022/01/10 01:15:29;;;;;;;;;;;0.00;99.90;;;;;;4981491;28;19922;-81
2022/01/10 01:25:51;;;;;;;;;;;-0.10;99.90;;;;;;4949471;28;20352;-82
2022/01/10 01:28:18;;;;;;;;;;;0.00;99.90;;;;;;4958470;28;20022;-82
2022/01/10 01:30:45;;;;;;;;;;;-0.10;99.90;;;;;;4956741;28;19995;-82
2022/01/10 01:33:14;;;;;;;;;;;-0.10;99.90;;;;;;4981124;28;19961;-82
2022/01/10 01:35:42;;;;;;;;;;;-0.10;99.90;;;;;;4953381;28;19926;-82
2022/01/10 01:38:08;;;;;;;;;;;-0.10;99.90;;;;;;4941181;28;20399;-82
2022/01/10 01:40:42;;;;;;;;;;;-0.20;99.90;;;;;;4963376;28;19922;-82
2022/01/10 01:43:09;;;;;;;;;;;-0.20;99.90;;;;;;4959608;28;20563;-82
2022/01/10 01:45:38;;;;;;;;;;;-0.20;99.90;;;;;;4962017;28;20139;-82
2022/01/10 01:48:05;;;;;;;;;;;-0.20;99.90;;;;;;4944951;28;19926;-82
2022/01/10 01:50:32;;;;;;;;;;;-0.20;99.90;;;;;;4947031;28;19949;-82
2022/01/10 01:53:10;;;;;;;;;;;-0.20;99.90;;;;;;2311085;28;10021924;-82
2022/01/10 01:55:38;;;;;;;;;;;-0.20;99.90;;;;;;4272492;28;10000933;-82
2022/01/10 01:58:05;;;;;;;;;;;-0.20;99.90;;;;;;4971709;28;19942;-82
2022/01/10 02:00:32;;;;;;;;;;;-0.20;99.90;;;;;;4975389;28;20028;-82
2022/01/10 02:02:59;;;;;;;;;;;-0.20;99.90;;;;;;4963970;28;19926;-82
2022/01/10 02:05:28;;;;;;;;;;;-0.30;99.90;;;;;;4958331;28;19938;-83
2022/01/10 02:07:56;;;;;;;;;;;-0.30;99.90;;;;;;4973976;28;20590;-83
2022/01/10 02:10:23;;;;;;;;;;;-0.30;99.90;;;;;;4963746;28;19922;-83
2022/01/10 02:12:50;;;;;;;;;;;-0.30;99.90;;;;;;4979408;28;20356;-83
2022/01/10 02:15:25;;;;;;;;;;;-0.30;99.90;;;;;;4963504;28;19961;-83
2022/01/10 02:17:58;;;;;;;;;;;-0.30;99.90;;;;;;4978658;28;19922;-82
2022/01/10 02:20:33;;;;;;;;;;;-0.30;99.90;;;;;;4980391;28;20016;-82
2022/01/10 02:23:01;;;;;;;;;;;-0.30;99.90;;;;;;4979650;28;19950;-82
2022/01/10 02:25:46;;;;;;;;;;;-0.30;99.90;;;;;;4964899;28;19928;-82
2022/01/10 02:28:15;;;;;;;;;;;-0.30;99.90;;;;;;4978175;28;20010;-82
2022/01/10 02:30:42;;;;;;;;;;;-0.30;99.90;;;;;;4964856;28;19934;-82
2022/01/10 02:33:09;;;;;;;;;;;-0.30;99.90;;;;;;4966994;28;19992;-83
2022/01/10 02:35:44;;;;;;;;;;;-0.30;99.90;;;;;;4980472;28;20025;-83
2022/01/10 02:38:11;;;;;;;;;;;-0.30;99.90;;;;;;4963501;28;20303;-83
2022/01/10 02:40:38;;;;;;;;;;;-0.30;99.90;;;;;;4968187;28;19930;-83
2022/01/10 02:43:06;;;;;;;;;;;-0.30;99.90;;;;;;4980122;28;20012;-82
2022/01/10 02:45:34;;;;;;;;;;;-0.30;99.90;;;;;;4981416;28;19921;-82
2022/01/10 02:48:01;;;;;;;;;;;-0.30;99.90;;;;;;4963457;28;19930;-82
2022/01/10 02:50:28;;;;;;;;;;;-0.40;99.90;;;;;;4978395;28;19934;-82
2022/01/10 02:52:55;;;;;;;;;;;-0.30;99.90;;;;;;4975005;28;19930;-82
2022/01/10 02:55:21;;;;;;;;;;;-0.40;99.90;;;;;;4965755;28;19958;-83
2022/01/10 02:57:48;;;;;;;;;;;-0.40;99.90;;;;;;4980781;28;19926;-83
2022/01/10 03:00:20;;;;;;;;;;;-0.40;99.90;;;;;;4965200;28;19926;-83
2022/01/10 03:02:52;;;;;;;;;;;-0.40;99.90;;;;;;4978540;28;19945;-83
2022/01/10 03:05:22;;;;;;;;;;;-0.40;99.90;;;;;;4963911;28;19922;-83
2022/01/10 03:07:52;;;;;;;;;;;-0.40;99.90;;;;;;4966732;28;19932;-82
2022/01/10 03:10:19;;;;;;;;;;;-0.40;99.90;;;;;;4977877;28;19984;-82
2022/01/10 03:12:46;;;;;;;;;;;-0.50;99.90;;;;;;4962478;28;19922;-82
2022/01/10 03:15:13;;;;;;;;;;;-0.40;99.90;;;;;;4980737;28;19934;-82
2022/01/10 03:17:40;;;;;;;;;;;-0.40;99.90;;;;;;4980966;28;19926;-82
2022/01/10 03:20:08;;;;;;;;;;;-0.40;99.90;;;;;;4965628;28;20009;-82
2022/01/10 03:22:35;;;;;;;;;;;-0.40;99.90;;;;;;4968917;28;19980;-82
2022/01/10 03:25:03;;;;;;;;;;;-0.40;99.90;;;;;;4969584;28;20009;-82
2022/01/10 03:27:32;;;;;;;;;;;-0.40;99.90;;;;;;4983315;28;19929;-82
2022/01/10 03:29:58;;;;;;;;;;;-0.40;99.90;;;;;;4984687;28;19926;-82
2022/01/10 03:32:25;;;;;;;;;;;-0.40;99.90;;;;;;4960113;28;19926;-82
2022/01/10 03:34:58;;;;;;;;;;;-0.40;99.90;;;;;;4979273;28;19926;-82
2022/01/10 03:37:25;;;;;;;;;;;-0.40;99.90;;;;;;4974491;28;20013;-82
2022/01/10 03:39:52;;;;;;;;;;;-0.40;99.90;;;;;;4969989;28;19922;-82
2022/01/10 03:42:19;;;;;;;;;;;-0.40;99.90;;;;;;4980913;28;19926;-82
2022/01/10 03:44:46;;;;;;;;;;;-0.40;99.90;;;;;;4967542;28;19926;-82
2022/01/10 03:47:13;;;;;;;;;;;-0.40;99.90;;;;;;4978265;28;20009;-82
2022/01/10 03:49:40;;;;;;;;;;;-0.40;99.90;;;;;;4970151;28;19945;-82
2022/01/10 03:52:23;;;;;;;;;;;-0.40;99.90;;;;;;3998355;28;10000073;-82
2022/01/10 03:54:50;;;;;;;;;;;-0.40;99.90;;;;;;3084373;28;10002173;-82
2022/01/10 03:57:17;;;;;;;;;;;-0.40;99.90;;;;;;4969810;28;19926;-82
2022/01/10 03:59:44;;;;;;;;;;;-0.50;99.90;;;;;;4983760;28;24932;-82
2022/01/10 04:02:11;;;;;;;;;;;-0.40;99.90;;;;;;4965015;28;20534;-82
2022/01/10 04:04:39;;;;;;;;;;;-0.50;99.90;;;;;;4967341;28;19937;-82
2022/01/10 04:07:08;;;;;;;;;;;-0.50;99.90;;;;;;4982933;28;19930;-82
2022/01/10 04:09:34;;;;;;;;;;;-0.50;99.90;;;;;;4981487;28;20029;-82
2022/01/10 04:12:02;;;;;;;;;;;-0.50;99.90;;;;;;4983530;28;19949;-82
2022/01/10 04:14:29;;;;;;;;;;;-0.50;99.90;;;;;;4981054;28;20379;-82
2022/01/10 04:16:55;;;;;;;;;;;-0.50;99.90;;;;;;4967592;28;19930;-82
2022/01/10 04:19:22;;;;;;;;;;;-0.50;99.90;;;;;;4963135;28;19984;-82
2022/01/10 04:21:49;;;;;;;;;;;-0.50;99.90;;;;;;4968382;28;19953;-83
2022/01/10 04:24:16;;;;;;;;;;;-0.50;99.90;;;;;;4969355;28;20344;-83
2022/01/10 04:26:43;;;;;;;;;;;-0.50;99.90;;;;;;4964168;28;20033;-83
2022/01/10 04:29:13;;;;;;;;;;;-0.50;99.90;;;;;;4966272;28;19930;-83
2022/01/10 04:31:40;;;;;;;;;;;-0.50;99.90;;;;;;4966887;28;20234;-82
2022/01/10 04:34:07;;;;;;;;;;;-0.50;99.90;;;;;;4968025;28;19926;-82
2022/01/10 04:36:34;;;;;;;;;;;-0.50;99.90;;;;;;4988275;28;19967;-82
2022/01/10 04:39:02;;;;;;;;;;;-0.50;99.90;;;;;;4968904;28;20008;-82
2022/01/10 04:41:32;;;;;;;;;;;-0.50;99.90;;;;;;4948417;28;19937;-82
2022/01/10 04:43:59;;;;;;;;;;;-0.50;99.90;;;;;;4981993;28;20242;-82
2022/01/10 04:46:27;;;;;;;;;;;-0.50;99.90;;;;;;4979728;28;19922;-82
2022/01/10 04:48:54;;;;;;;;;;;-0.40;99.90;;;;;;4957789;28;19930;-82
2022/01/10 04:51:21;;;;;;;;;;;-0.40;99.90;;;;;;4972035;28;19974;-82
2022/01/10 04:53:50;;;;;;;;;;;-0.40;99.90;;;;;;4931507;28;19923;-82
2022/01/10 04:56:18;;;;;;;;;;;-0.40;99.90;;;;;;4947558;28;20012;-82
2022/01/10 04:58:47;;;;;;;;;;;-0.40;99.90;;;;;;4941147;28;19922;-82
2022/01/10 05:01:15;;;;;;;;;;;-0.50;99.90;;;;;;4947989;28;19923;-82
2022/01/10 05:03:45;;;;;;;;;;;-0.50;99.90;;;;;;4966837;28;19993;-82
2022/01/10 05:06:12;;;;;;;;;;;-0.50;99.90;;;;;;4958865;28;19958;-82
2022/01/10 05:08:40;;;;;;;;;;;-0.50;99.90;;;;;;4957820;28;19934;-82
2022/01/10 05:11:11;;;;;;;;;;;-0.60;99.90;;;;;;4950109;28;19922;-82
2022/01/10 05:13:38;;;;;;;;;;;-0.60;99.90;;;;;;4960620;28;19930;-82
2022/01/10 05:16:05;;;;;;;;;;;-0.60;99.90;;;;;;4979694;28;19949;-82
2022/01/10 05:18:32;;;;;;;;;;;-0.60;99.90;;;;;;4980641;28;19976;-82
2022/01/10 05:20:59;;;;;;;;;;;-0.70;99.90;;;;;;4984093;28;19941;-82
2022/01/10 05:23:26;;;;;;;;;;;-0.70;99.90;;;;;;4978325;28;19981;-82
2022/01/10 05:25:53;;;;;;;;;;;-0.70;99.90;;;;;;4982142;28;19929;-82
2022/01/10 05:28:21;;;;;;;;;;;-0.80;99.90;;;;;;4959291;28;19923;-83
2022/01/10 05:30:51;;;;;;;;;;;-0.80;99.90;;;;;;4951841;28;22463;-83
2022/01/10 05:33:22;;;;;;;;;;;-0.80;99.90;;;;;;4983159;28;19922;-83
2022/01/10 05:35:50;;;;;;;;;;;-0.90;99.90;;;;;;4965276;28;19929;-83
2022/01/10 05:38:17;;;;;;;;;;;-0.90;99.90;;;;;;4963226;28;19934;-82
2022/01/10 05:40:44;;;;;;;;;;;-0.90;99.90;;;;;;4966130;28;19922;-82
2022/01/10 05:43:11;;;;;;;;;;;-1.00;99.90;;;;;;4951062;28;19926;-82
2022/01/10 05:45:44;;;;;;;;;;;-1.00;99.90;;;;;;4965581;28;19925;-82
2022/01/10 05:48:15;;;;;;;;;;;-1.00;99.90;;;;;;4979676;28;19925;-82
2022/01/10 05:50:44;;;;;;;;;;;-1.10;99.90;;;;;;4983898;28;19922;-82
2022/01/10 05:53:26;;;;;;;;;;;-1.10;99.90;;;;;;2137203;28;10022125;-82
2022/01/10 05:55:54;;;;;;;;;;;-1.10;99.90;;;;;;4618778;28;10001542;-82
2022/01/10 05:58:22;;;;;;;;;;;-1.20;99.90;;;;;;4981516;28;19922;-82
2022/01/10 06:00:49;;;;;;;;;;;-1.20;99.90;;;;;;4980075;28;20135;-82
2022/01/10 06:03:16;;;;;;;;;;;-1.20;99.90;;;;;;4965140;28;20061;-82
2022/01/10 06:05:50;;;;;;;;;;;-1.20;99.90;;;;;;4967419;28;19972;-82
2022/01/10 06:08:19;;;;;;;;;;;-1.20;99.90;;;;;;4961377;28;19932;-82
2022/01/10 06:10:46;;;;;;;;;;;-1.20;99.90;;;;;;4980059;28;20265;-82
2022/01/10 06:13:35;;;;;;;;;;;-1.20;99.90;;;;;;4965459;28;20237;-82
2022/01/10 06:16:02;;;;;;;;;;;-1.30;99.90;;;;;;4963147;28;19925;-82
2022/01/10 06:18:29;;;;;;;;;;;-1.30;99.90;;;;;;4937645;28;19972;-82
2022/01/10 06:20:56;;;;;;;;;;;-1.30;99.90;;;;;;4968843;28;20244;-82
2022/01/10 06:23:23;;;;;;;;;;;-1.30;99.90;;;;;;4963660;28;19961;-82
2022/01/10 06:25:51;;;;;;;;;;;-1.30;99.90;;;;;;4966531;28;20291;-82
2022/01/10 06:28:18;;;;;;;;;;;-1.30;99.90;;;;;;4961658;28;19958;-82
2022/01/10 06:30:49;;;;;;;;;;;-1.30;99.90;;;;;;4964745;28;19930;-82
2022/01/10 06:33:16;;;;;;;;;;;-1.30;99.90;;;;;;4962697;28;19938;-83
2022/01/10 06:35:43;;;;;;;;;;;-1.30;99.90;;;;;;4959094;28;19984;-82
2022/01/10 06:38:10;;;;;;;;;;;-1.30;99.90;;;;;;4974718;28;19926;-82
2022/01/10 06:40:40;;;;;;;;;;;-1.30;99.90;;;;;;4958098;28;20008;-82
2022/01/10 06:43:07;;;;;;;;;;;-1.20;99.90;;;;;;4978517;28;19937;-82
2022/01/10 06:45:34;;;;;;;;;;;-1.20;99.90;;;;;;4966497;28;19996;-82
2022/01/10 06:48:03;;;;;;;;;;;-1.20;99.90;;;;;;4953623;28;19952;-82
2022/01/10 06:50:31;;;;;;;;;;;-1.10;99.90;;;;;;4951577;28;19926;-82
2022/01/10 06:52:58;;;;;;;;;;;-1.10;99.90;;;;;;4950663;28;19957;-82
2022/01/10 06:55:28;;;;;;;;;;;-1.00;99.90;;;;;;4952409;28;19929;-82
2022/01/10 06:57:58;;;;;;;;;;;-1.00;99.90;;;;;;4956060;28;19926;-82
2022/01/10 07:00:27;;;;;;;;;;;-0.90;99.90;;;;;;4967427;28;19934;-82
2022/01/10 07:02:56;;;;;;;;;;;-0.90;99.90;;;;;;4982095;28;19936;-82
2022/01/10 07:05:25;;;;;;;;;;;-0.80;99.90;;;;;;4989678;28;19930;-82
2022/01/10 07:07:59;;;;;;;;;;;-0.80;99.90;;;;;;4967684;28;19939;-82
2022/01/10 07:10:34;;;;;;;;;;;-0.80;99.90;;;;;;4990724;28;19972;-82
2022/01/10 07:13:01;;;;;;;;;;;-0.70;99.90;;;;;;4982595;28;20006;-82
2022/01/10 07:15:29;;;;;;;;;;;-0.70;99.90;;;;;;4987527;28;19936;-82
2022/01/10 07:18:00;;;;;;;;;;;-0.70;99.90;;;;;;4981813;28;20000;-82
2022/01/10 07:20:32;;;;;;;;;;;-0.70;99.90;;;;;;4980656;28;20275;-82
2022/01/10 07:22:59;;;;;;;;;;;-0.80;99.90;;;;;;4981495;28;20038;-82
2022/01/10 07:25:26;;;;;;;;;;;-0.70;99.90;;;;;;4970855;28;19926;-82
2022/01/10 07:27:53;;;;;;;;;;;-0.70;99.90;;;;;;4964654;28;20036;-82
2022/01/10 07:30:20;;;;;;;;;;;-0.80;99.90;;;;;;4970771;28;19981;-82
2022/01/10 07:32:47;;;;;;;;;;;-0.80;99.90;;;;;;4965827;28;20010;-82
2022/01/10 07:35:14;;;;;;;;;;;-0.80;99.90;;;;;;4970654;28;19926;-82
2022/01/10 07:37:41;;;;;;;;;;;-0.80;99.90;;;;;;4966932;28;19929;-82
2022/01/10 07:40:08;;;;;;;;;;;-0.80;99.90;;;;;;4966737;28;19958;-82
2022/01/10 07:42:35;;;;;;;;;;;-0.70;99.90;;;;;;4980707;28;20307;-82
2022/01/10 07:45:08;;;;;;;;;;;-0.70;99.90;;;;;;4968775;28;20017;-82
2022/01/10 07:47:35;;;;;;;;;;;-0.70;99.90;;;;;;4971969;28;19926;-83
2022/01/10 07:50:03;;;;;;;;;;;-0.70;99.90;;;;;;4968582;28;19925;-83
2022/01/10 07:52:30;;;;;;;;;;;-0.70;99.90;;;;;;4970122;28;19922;-82
2022/01/10 07:54:57;;;;;;;;;;;-0.70;99.90;;;;;;4968146;28;19929;-82
2022/01/10 07:57:45;;;;;;;;;;;-0.70;99.90;;;;;;4191271;28;10000411;-82
2022/01/10 08:00:12;;;;;;;;;;;-0.70;99.90;;;;;;2055045;28;10002107;-82
2022/01/10 08:02:39;;;;;;;;;;;-0.70;99.90;;;;;;4967367;28;20004;-83
2022/01/10 08:05:08;;;;;;;;;;;-0.70;99.90;;;;;;4980870;28;19957;-83
2022/01/10 08:07:35;;;;;;;;;;;-0.70;99.90;;;;;;4968349;28;19960;-82
2022/01/10 08:10:05;;;;;;;;;;;-0.70;99.90;;;;;;4979882;28;19932;-82
2022/01/10 08:15:36;;;;;;;;;;;-0.70;99.90;;;;;;4957246;28;19934;-82
2022/01/10 08:18:04;;;;;;;;;;;-0.70;99.90;;;;;;4975771;28;19937;-82
2022/01/10 08:20:31;;;;;;;;;;;-0.70;99.90;;;;;;4978075;28;19973;-82
2022/01/10 08:22:58;;;;;;;;;;;-0.70;99.90;;;;;;4969597;28;19926;-82
2022/01/10 08:25:25;;;;;;;;;;;-0.60;99.90;;;;;;4966768;28;19929;-82
2022/01/10 08:27:52;;;;;;;;;;;-0.60;99.90;;;;;;4968567;28;19922;-82
2022/01/10 08:30:19;;;;;;;;;;;-0.50;99.90;;;;;;4967057;28;19937;-82
2022/01/10 08:32:50;;;;;;;;;;;-0.50;99.90;;;;;;4983460;28;19925;-82
2022/01/10 08:35:20;;;;;;;;;;;-0.50;99.90;;;;;;4968633;28;19929;-83
2022/01/10 08:37:47;;;;;;;;;;;-0.50;99.90;;;;;;4970748;28;19929;-83
2022/01/10 08:40:14;;;;;;;;;;;-0.40;99.90;;;;;;4966579;28;19949;-83
2022/01/10 08:42:41;;;;;;;;;;;-0.40;99.90;;;;;;4969299;28;19956;-84
2022/01/10 08:45:08;;;;;;;;;;;-0.40;99.90;;;;;;4966637;28;20020;-83
2022/01/10 08:47:36;;;;;;;;;;;-0.40;99.90;;;;;;4972034;28;19922;-83
2022/01/10 08:50:04;;;;;;;;;;;-0.30;99.90;;;;;;4968508;28;19922;-82
2022/01/10 08:52:31;;;;;;;;;;;-0.30;99.90;;;;;;4981790;28;20467;-84
2022/01/10 08:54:57;;;;;;;;;;;-0.30;99.90;;;;;;4983441;28;20069;-82
2022/01/10 08:57:26;;;;;;;;;;;-0.20;99.90;;;;;;4968689;28;19925;-82
2022/01/10 08:59:52;;;;;;;;;;;-0.30;99.90;;;;;;4966269;28;20013;-82
2022/01/10 09:02:19;;;;;;;;;;;-0.20;99.90;;;;;;4967429;28;20538;-82
2022/01/10 09:04:47;;;;;;;;;;;-0.20;99.90;;;;;;4964725;28;19962;-82
2022/01/10 09:07:14;;;;;;;;;;;-0.20;99.90;;;;;;4966624;28;19926;-83
2022/01/10 09:09:42;;;;;;;;;;;-0.20;99.90;;;;;;4955308;28;19997;-83
2022/01/10 09:12:11;;;;;;;;;;;-0.20;99.90;;;;;;4946527;28;19933;-84
2022/01/10 09:14:37;;;;;;;;;;;-0.20;99.90;;;;;;4944918;28;19922;-84
2022/01/10 09:17:05;;;;;;;;;;;-0.20;99.90;;;;;;4946989;28;19952;-84
2022/01/10 09:19:32;;;;;;;;;;;-0.20;99.90;;;;;;4943822;28;20464;-83
2022/01/10 09:21:59;;;;;;;;;;;-0.20;99.90;;;;;;4945807;28;19941;-82
2022/01/10 09:24:25;;;;;;;;;;;-0.20;99.90;;;;;;4940976;28;19926;-83
2022/01/10 09:26:52;;;;;;;;;;;-0.20;99.90;;;;;;4945963;28;20020;-83
2022/01/10 09:29:19;;;;;;;;;;;-0.20;99.90;;;;;;4946615;28;19985;-82
2022/01/10 09:31:46;;;;;;;;;;;-0.20;99.90;;;;;;4948027;28;19933;-82
2022/01/10 09:34:13;;;;;;;;;;;-0.20;99.90;;;;;;4942698;28;20380;-83
2022/01/10 09:36:40;;;;;;;;;;;-0.10;99.90;;;;;;4944110;28;19922;-83
2022/01/10 09:39:08;;;;;;;;;;;-0.10;99.90;;;;;;4951539;28;20041;-83
2022/01/10 09:41:35;;;;;;;;;;;-0.10;99.90;;;;;;4911229;28;20308;-83
2022/01/10 09:44:03;;;;;;;;;;;-0.10;99.90;;;;;;4942979;28;19934;-83
2022/01/10 09:46:31;;;;;;;;;;;-0.10;99.90;;;;;;4945153;28;20336;-82
2022/01/10 09:49:00;;;;;;;;;;;0.00;99.90;;;;;;4939599;28;19926;-83
2022/01/10 09:51:27;;;;;;;;;;;0.00;99.90;;;;;;4908988;28;19945;-84
2022/01/10 09:53:55;;;;;;;;;;;0.00;99.90;;;;;;968898;28;10002081;-83
2022/01/10 09:56:22;;;;;;;;;;;0.00;99.90;;;;;;4946655;28;19937;-82
2022/01/10 09:58:50;;;;;;;;;;;0.00;99.90;;;;;;4940212;28;19958;-82
2022/01/10 10:01:17;;;;;;;;;;;0.10;99.90;;;;;;4944980;28;20014;-82
2022/01/10 10:03:47;;;;;;;;;;;0.10;99.90;;;;;;4945458;28;19926;-83
2022/01/10 10:06:15;;;;;;;;;;;0.10;99.90;;;;;;4945430;28;19949;-83
2022/01/10 10:08:43;;;;;;;;;;;0.10;99.90;;;;;;4945713;28;19981;-84
2022/01/10 10:11:10;;;;;;;;;;;0.10;99.90;;;;;;4944419;28;20036;-84
2022/01/10 10:13:44;;;;;;;;;;;0.10;99.90;;;;;;4946805;28;19931;-83
2022/01/10 10:16:14;;;;;;;;;;;0.10;99.90;;;;;;4945774;28;19937;-83
2022/01/10 10:18:43;;;;;;;;;;;0.10;99.90;;;;;;4941743;28;19933;-83
2022/01/10 10:21:11;;;;;;;;;;;0.20;99.90;;;;;;4965066;28;20230;-83
2022/01/10 10:23:40;;;;;;;;;;;0.20;99.90;;;;;;4986295;28;20041;-83
2022/01/10 10:26:07;;;;;;;;;;;0.20;99.90;;;;;;4971422;28;19929;-84
2022/01/10 10:28:37;;;;;;;;;;;0.20;99.90;;;;;;4968531;28;19926;-83
2022/01/10 10:31:04;;;;;;;;;;;0.20;99.90;;;;;;4969570;28;19933;-83
2022/01/10 10:33:31;;;;;;;;;;;0.30;99.90;;;;;;4967665;28;20256;-84
2022/01/10 10:36:03;;;;;;;;;;;0.30;99.90;;;;;;4972546;28;19993;-84
2022/01/10 10:38:31;;;;;;;;;;;0.30;99.90;;;;;;4965826;28;19973;-83
2022/01/10 10:41:02;;;;;;;;;;;0.30;99.90;;;;;;4969057;28;20000;-83
2022/01/10 10:43:30;;;;;;;;;;;0.30;99.90;;;;;;4982219;28;19929;-83
2022/01/10 10:46:01;;;;;;;;;;;0.30;99.90;;;;;;4969324;28;19952;-83
2022/01/10 10:48:29;;;;;;;;;;;0.30;99.90;;;;;;4968226;28;19922;-83
2022/01/10 10:50:58;;;;;;;;;;;0.30;99.90;;;;;;4970105;28;19968;-83
2022/01/10 10:53:27;;;;;;;;;;;0.30;99.90;;;;;;4966819;28;19926;-83
2022/01/10 10:55:56;;;;;;;;;;;0.30;99.90;;;;;;4983470;28;19934;-83
2022/01/10 10:58:28;;;;;;;;;;;0.40;99.90;;;;;;4969998;28;19929;-83
2022/01/10 11:00:55;;;;;;;;;;;0.40;99.90;;;;;;4970735;28;20553;-83
2022/01/10 11:03:23;;;;;;;;;;;0.30;99.90;;;;;;4964190;28;19962;-84
2022/01/10 11:05:51;;;;;;;;;;;0.30;99.90;;;;;;4981123;28;20043;-84
2022/01/10 11:08:17;;;;;;;;;;;0.30;99.90;;;;;;4970579;28;20449;-83
2022/01/10 11:10:45;;;;;;;;;;;0.30;99.90;;;;;;4969945;28;19926;-84
2022/01/10 11:13:12;;;;;;;;;;;0.30;99.90;;;;;;4962331;28;19930;-82
2022/01/10 11:15:39;;;;;;;;;;;0.30;99.90;;;;;;4967138;28;20395;-83
2022/01/10 11:18:07;;;;;;;;;;;0.30;99.90;;;;;;4982801;28;19962;-83
2022/01/10 11:20:44;;;;;;;;;;;0.40;99.90;;;;;;4971033;28;20291;-83
2022/01/10 11:23:31;;;;;;;;;;;0.40;99.90;;;;;;4969996;28;19932;-82
2022/01/10 11:25:58;;;;;;;;;;;0.40;99.90;;;;;;4975161;28;20446;-83
2022/01/10 11:28:26;;;;;;;;;;;0.40;99.90;;;;;;4969189;28;19926;-82
2022/01/10 11:30:54;;;;;;;;;;;0.40;99.90;;;;;;4964774;28;19934;-82
2022/01/10 11:33:22;;;;;;;;;;;0.40;99.90;;;;;;4963786;28;19922;-82
2022/01/10 11:35:52;;;;;;;;;;;0.50;99.90;;;;;;4973606;28;19926;-82
2022/01/10 11:38:19;;;;;;;;;;;0.50;99.90;;;;;;4972674;28;19977;-82
2022/01/10 11:40:48;;;;;;;;;;;0.50;99.90;;;;;;4967138;28;20429;-82
2022/01/10 11:43:27;;;;;;;;;;;0.50;99.90;;;;;;4970440;28;19922;-82
2022/01/10 11:46:31;;;;;;;;;;;0.50;99.90;;;;;;4969721;28;20012;-82
2022/01/10 11:49:09;;;;;;;;;;;0.50;99.90;;;;;;4967353;28;19961;-82
2022/01/10 11:51:36;;;;;;;;;;;0.60;99.90;;;;;;4923944;28;20372;-82
2022/01/10 11:54:08;;;;;;;;;;;0.60;99.90;;;;;;1336495;28;10002000;-82
2022/01/10 11:56:37;;;;;;;;;;;0.60;99.90;;;;;;4947778;28;19926;-82
2022/01/10 11:59:11;;;;;;;;;;;0.70;99.90;;;;;;4950456;28;20001;-82
2022/01/10 12:01:40;;;;;;;;;;;0.70;99.90;;;;;;4948744;28;19923;-82
2022/01/10 12:04:07;;;;;;;;;;;0.70;99.90;;;;;;4964109;28;19965;-82
2022/01/10 12:06:35;;;;;;;;;;;0.70;99.90;;;;;;4949105;28;19962;-82
2022/01/10 12:09:02;;;;;;;;;;;0.80;99.90;;;;;;4950473;28;19946;-82
2022/01/10 12:11:30;;;;;;;;;;;0.80;99.90;;;;;;4952320;28;20233;-82
2022/01/10 12:13:58;;;;;;;;;;;0.80;99.90;;;;;;4951083;28;19926;-82
2022/01/10 12:16:26;;;;;;;;;;;0.80;99.90;;;;;;4948810;28;19922;-84
2022/01/10 12:18:54;;;;;;;;;;;0.80;99.90;;;;;;4964657;28;19945;-82
2022/01/10 12:21:21;;;;;;;;;;;0.70;99.90;;;;;;4947585;28;19997;-82
2022/01/10 12:23:48;;;;;;;;;;;0.70;99.90;;;;;;4950045;28;19931;-82
2022/01/10 12:26:15;;;;;;;;;;;0.70;99.90;;;;;;4959987;28;19922;-85
2022/01/10 12:28:44;;;;;;;;;;;0.70;99.90;;;;;;4961401;28;20295;-83
2022/01/10 12:31:11;;;;;;;;;;;0.80;99.90;;;;;;4948893;28;19926;-83
2022/01/10 12:33:38;;;;;;;;;;;0.80;99.90;;;;;;4949817;28;19930;-82
2022/01/10 12:36:05;;;;;;;;;;;0.80;99.90;;;;;;4948501;28;19926;-82
2022/01/10 12:38:32;;;;;;;;;;;0.90;99.90;;;;;;4963308;28;19922;-82
2022/01/10 12:40:59;;;;;;;;;;;0.90;99.90;;;;;;4949758;28;20359;-82
2022/01/10 12:43:26;;;;;;;;;;;0.90;99.90;;;;;;4962976;28;19965;-82
2022/01/10 12:45:53;;;;;;;;;;;0.90;99.90;;;;;;4944942;28;19922;-81
2022/01/10 12:48:23;;;;;;;;;;;0.90;99.90;;;;;;4944330;28;19954;-82
2022/01/10 12:50:52;;;;;;;;;;;0.90;99.90;;;;;;4962935;28;20009;-82
2022/01/10 12:53:19;;;;;;;;;;;0.90;99.90;;;;;;4951327;28;20332;-83
2022/01/10 12:55:45;;;;;;;;;;;0.90;99.90;;;;;;4951264;28;19926;-82
2022/01/10 12:58:12;;;;;;;;;;;0.90;99.90;;;;;;4951398;28;19932;-83
2022/01/10 13:00:39;;;;;;;;;;;0.90;99.90;;;;;;4949298;28;20663;-82
2022/01/10 13:03:06;;;;;;;;;;;0.90;99.90;;;;;;4946917;28;19934;-83
2022/01/10 13:05:34;;;;;;;;;;;0.90;99.90;;;;;;4951805;28;19931;-83
2022/01/10 13:08:02;;;;;;;;;;;0.90;99.90;;;;;;4950185;28;20032;-84
2022/01/10 13:10:32;;;;;;;;;;;0.90;99.90;;;;;;4961074;28;19926;-83
2022/01/10 13:13:01;;;;;;;;;;;0.90;99.90;;;;;;4946994;28;20387;-84
2022/01/10 13:15:31;;;;;;;;;;;0.80;99.90;;;;;;4950969;28;19930;-82
2022/01/10 13:17:59;;;;;;;;;;;0.80;99.90;;;;;;4949579;28;19926;-82
2022/01/10 13:20:27;;;;;;;;;;;0.80;99.90;;;;;;4913692;28;19937;-82
2022/01/10 13:23:04;;;;;;;;;;;0.80;99.90;;;;;;4899033;28;20072;-82
2022/01/10 13:25:41;;;;;;;;;;;0.80;99.90;;;;;;4918413;28;19922;-85
2022/01/10 13:28:10;;;;;;;;;;;0.80;99.90;;;;;;4950591;28;20920;-83
2022/01/10 13:30:37;;;;;;;;;;;0.80;99.90;;;;;;4946538;28;19922;-84
2022/01/10 13:33:09;;;;;;;;;;;0.80;99.90;;;;;;4948240;28;19930;-84
2022/01/10 13:35:37;;;;;;;;;;;0.80;99.90;;;;;;4959516;28;19923;-83
2022/01/10 13:38:07;;;;;;;;;;;0.80;99.90;;;;;;4946787;28;20687;-83
2022/01/10 13:40:40;;;;;;;;;;;0.80;99.90;;;;;;4958794;28;19930;-83
2022/01/10 13:43:09;;;;;;;;;;;0.80;99.90;;;;;;4948297;28;19930;-82
2022/01/10 13:45:51;;;;;;;;;;;0.80;99.90;;;;;;4948225;28;19985;-83
2022/01/10 13:48:22;;;;;;;;;;;0.80;99.90;;;;;;4949389;28;20005;-82
2022/01/10 13:50:51;;;;;;;;;;;0.80;99.90;;;;;;4939761;28;19926;-83
2022/01/10 13:53:27;;;;;;;;;;;0.80;99.90;;;;;;2052824;28;10022092;-82
2022/01/10 13:56:04;;;;;;;;;;;0.80;99.90;;;;;;3935909;28;10001414;-82
2022/01/10 13:58:32;;;;;;;;;;;0.80;99.90;;;;;;4967287;28;19930;-83
2022/01/10 14:01:01;;;;;;;;;;;0.80;99.90;;;;;;4966659;28;19937;-83
2022/01/10 14:03:29;;;;;;;;;;;0.80;99.90;;;;;;4967791;28;20005;-83
2022/01/10 14:06:08;;;;;;;;;;;0.80;99.90;;;;;;4967585;28;19938;-83
2022/01/10 14:08:36;;;;;;;;;;;0.80;99.90;;;;;;4965968;28;19922;-82
2022/01/10 14:11:05;;;;;;;;;;;0.80;99.90;;;;;;4967357;28;19926;-83
2022/01/10 14:13:33;;;;;;;;;;;0.80;99.90;;;;;;4965335;28;19930;-83
2022/01/10 14:16:00;;;;;;;;;;;0.80;99.90;;;;;;4967786;28;19984;-83
2022/01/10 14:18:27;;;;;;;;;;;0.70;99.90;;;;;;4966698;28;19926;-83
2022/01/10 14:20:54;;;;;;;;;;;0.80;99.90;;;;;;4961781;28;20283;-83
2022/01/10 14:23:21;;;;;;;;;;;0.70;99.90;;;;;;4970024;28;19930;-83
2022/01/10 14:25:48;;;;;;;;;;;0.70;99.90;;;;;;4961454;28;19922;-83
2022/01/10 14:28:15;;;;;;;;;;;0.70;99.90;;;;;;4981123;28;19922;-83
2022/01/10 14:30:42;;;;;;;;;;;0.70;99.90;;;;;;4966228;28;19948;-83
2022/01/10 14:33:09;;;;;;;;;;;0.70;99.90;;;;;;4980602;28;19922;-83
2022/01/10 14:35:35;;;;;;;;;;;0.70;99.90;;;;;;4966321;28;20380;-83
2022/01/10 14:38:02;;;;;;;;;;;0.70;99.90;;;;;;4981590;28;19922;-83
2022/01/10 14:40:29;;;;;;;;;;;0.70;99.90;;;;;;4962859;28;20453;-83